sensor_id;sensor_type;location;lat;lon;timestamp;temperature;humidity
8402;DHT22;4238;48.404;9.498;2023-04-01T00:01:30;6.70;99.90
8402;DHT22;4238;48.404;9.498;2023-04-01T00:03:57;6.70;99.90
8402;DHT22;4238;48.404;9.498;2023-04-01T00:06:24;6.80;99.90
8402;DHT22;4238;48.404;9.498;2023-04-01T00:08:52;6.70;99.90
8402;DHT22;4238;48.404;9.498;2023-04-01T00:11:19;6.80;99.90
8402;DHT22;4238;48.404;9.498;2023-04-01T00:13:47;6.80;99.90
8402;DHT22;4238;48.404;9.498;2023-04-01T00:16:14;6.60;99.90
8402;DHT22;4238;48.404;9.498;2023-04-01T00:18:42;6.60;99.90
8402;DHT22;4238;48.404;9.498;2023-04-01T00:21:08;6.60;99.90
8402;DHT22;4238;48.404;9.498;2023-04-01T00:23:35;6.40;99.90
8402;DHT22;4238;48.404;9.498;2023-04-01T00:26:04;6.40;99.90
8402;DHT22;4238;48.404;9.498;2023-04-01T00:28:31;6.40;99.90
8402;DHT22;4238;48.404;9.498;2023-04-01T00:31:04;6.50;99.90
8402;DHT22;4238;48.404;9.498;2023-04-01T00:33:31;6.50;99.90
8402;DHT22;4238;48.404;9.498;2023-04-01T00:36:06;6.60;99.90
8402;DHT22;4238;48.404;9.498;2023-04-01T00:38:34;6.40;99.90
8402;DHT22;4238;48.404;9.498;2023-04-01T00:41:01;6.60;99.90
8402;DHT22;4238;48.404;9.498;2023-04-01T00:43:30;6.60;99.90
8402;DHT22;4238;48.404;9.498;2023-04-01T00:45:57;6.60;99.90
8402;DHT22;4238;48.404;9.498;2023-04-01T00:48:26;6.50;99.90
8402;DHT22;4238;48.404;9.498;2023-04-01T00:50:56;6.60;99.90
8402;DHT22;4238;48.404;9.498;2023-04-01T00:53:24;6.60;99.90
8402;DHT22;4238;48.404;9.498;2023-04-01T00:55:56;6.60;99.90
8402;DHT22;4238;48.404;9.498;2023-04-01T00:58:27;6.50;99.90
8402;DHT22;4238;48.404;9.498;2023-04-01T01:00:58;6.40;99.90
8402;DHT22;4238;48.404;9.498;2023-04-01T01:03:26;6.50;99.90
8402;DHT22;4238;48.404;9.498;2023-04-01T01:06:08;6.60;99.90
8402;DHT22;4238;48.404;9.498;2023-04-01T01:08:50;6.60;99.90
8402;DHT22;4238;48.404;9.498;2023-04-01T01:11:31;6.60;99.90
8402;DHT22;4238;48.404;9.498;2023-04-01T01:14:07;6.60;99.90
8402;DHT22;4238;48.404;9.498;2023-04-01T01:16:43;6.70;99.90
8402;DHT22;4238;48.404;9.498;2023-04-01T01:19:28;6.60;99.90
8402;DHT22;4238;48.404;9.498;2023-04-01T01:22:21;6.60;99.90
8402;DHT22;4238;48.404;9.498;2023-04-01T01:25:05;6.50;99.90
8402;DHT22;4238;48.404;9.498;2023-04-01T01:27:37;6.40;99.90
8402;DHT22;4238;48.404;9.498;2023-04-01T01:30:35;6.50;99.90
8402;DHT22;4238;48.404;9.498;2023-04-01T01:33:17;6.50;99.90
8402;DHT22;4238;48.404;9.498;2023-04-01T01:35:48;6.50;99.90
8402;DHT22;4238;48.404;9.498;2023-04-01T01:38:18;6.50;99.90
8402;DHT22;4238;48.404;9.498;2023-04-01T01:40:48;6.60;99.90
8402;DHT22;4238;48.404;9.498;2023-04-01T01:43:21;6.50;99.90
8402;DHT22;4238;48.404;9.498;2023-04-01T01:45:51;6.50;99.90
8402;DHT22;4238;48.404;9.498;2023-04-01T01:48:19;6.60;99.90
8402;DHT22;4238;48.404;9.498;2023-04-01T01:50:48;6.50;99.90
8402;DHT22;4238;48.404;9.498;2023-04-01T01:53:15;6.50;99.90
8402;DHT22;4238;48.404;9.498;2023-04-01T01:55:44;6.50;99.90
8402;DHT22;4238;48.404;9.498;2023-04-01T01:58:16;6.50;99.90
8402;DHT22;4238;48.404;9.498;2023-04-01T02:00:46;6.50;99.90
8402;DHT22;4238;48.404;9.498;2023-04-01T02:03:15;6.40;99.90
8402;DHT22;4238;48.404;9.498;2023-04-01T02:05:44;6.40;99.90
8402;DHT22;4238;48.404;9.498;2023-04-01T02:08:16;6.30;99.90
8402;DHT22;4238;48.404;9.498;2023-04-01T02:10:48;6.20;99.90
8402;DHT22;4238;48.404;9.498;2023-04-01T02:13:21;6.30;99.90
8402;DHT22;4238;48.404;9.498;2023-04-01T02:15:50;6.40;99.90
8402;DHT22;4238;48.404;9.498;2023-04-01T02:18:19;6.40;99.90
8402;DHT22;4238;48.404;9.498;2023-04-01T02:20:46;6.40;99.90
8402;DHT22;4238;48.404;9.498;2023-04-01T02:23:16;6.40;99.90
8402;DHT22;4238;48.404;9.498;2023-04-01T02:25:43;6.40;99.90
8402;DHT22;4238;48.404;9.498;2023-04-01T02:28:12;6.40;99.90
8402;DHT22;4238;48.404;9.498;2023-04-01T02:30:43;6.50;99.90
8402;DHT22;4238;48.404;9.498;2023-04-01T02:33:11;6.50;99.90
8402;DHT22;4238;48.404;9.498;2023-04-01T02:35:38;6.50;99.90
8402;DHT22;4238;48.404;9.498;2023-04-01T02:38:06;6.40;99.90
8402;DHT22;4238;48.404;9.498;2023-04-01T02:40:43;6.50;99.90
8402;DHT22;4238;48.404;9.498;2023-04-01T02:43:11;6.50;99.90
8402;DHT22;4238;48.404;9.498;2023-04-01T02:45:38;6.30;99.90
8402;DHT22;4238;48.404;9.498;2023-04-01T02:48:05;6.30;99.90
8402;DHT22;4238;48.404;9.498;2023-04-01T02:50:32;6.30;99.90
8402;DHT22;4238;48.404;9.498;2023-04-01T02:53:00;6.20;99.90
8402;DHT22;4238;48.404;9.498;2023-04-01T02:55:28;6.30;99.90
8402;DHT22;4238;48.404;9.498;2023-04-01T02:57:57;6.20;99.90
8402;DHT22;4238;48.404;9.498;2023-04-01T03:00:24;6.30;99.90
8402;DHT22;4238;48.404;9.498;2023-04-01T03:02:51;6.20;99.90
8402;DHT22;4238;48.404;9.498;2023-04-01T03:05:18;6.10;99.90
8402;DHT22;4238;48.404;9.498;2023-04-01T03:07:45;6.10;99.90
8402;DHT22;4238;48.404;9.498;2023-04-01T03:10:12;6.00;99.90
8402;DHT22;4238;48.404;9.498;2023-04-01T03:12:39;6.00;99.90
8402;DHT22;4238;48.404;9.498;2023-04-01T03:15:10;6.00;99.90
8402;DHT22;4238;48.404;9.498;2023-04-01T03:17:37;5.90;99.90
8402;DHT22;4238;48.404;9.498;2023-04-01T03:20:05;5.90;99.90
8402;DHT22;4238;48.404;9.498;2023-04-01T03:22:33;5.90;99.90
8402;DHT22;4238;48.404;9.498;2023-04-01T03:25:00;5.90;99.90
8402;DHT22;4238;48.404;9.498;2023-04-01T03:27:27;5.90;99.90
8402;DHT22;4238;48.404;9.498;2023-04-01T03:29:54;5.90;99.90
8402;DHT22;4238;48.404;9.498;2023-04-01T03:32:23;5.90;99.90
8402;DHT22;4238;48.404;9.498;2023-04-01T03:34:49;5.90;99.90
8402;DHT22;4238;48.404;9.498;2023-04-01T03:37:16;5.60;99.90
8402;DHT22;4238;48.404;9.498;2023-04-01T03:39:43;5.50;99.90
8402;DHT22;4238;48.404;9.498;2023-04-01T03:42:11;5.60;99.90
8402;DHT22;4238;48.404;9.498;2023-04-01T03:44:38;5.60;99.90
8402;DHT22;4238;48.404;9.498;2023-04-01T03:47:05;5.50;99.90
8402;DHT22;4238;48.404;9.498;2023-04-01T03:49:36;5.50;99.90
8402;DHT22;4238;48.404;9.498;2023-04-01T03:52:03;5.50;99.90
8402;DHT22;4238;48.404;9.498;2023-04-01T03:54:30;5.40;99.90
8402;DHT22;4238;48.404;9.498;2023-04-01T03:56:57;5.30;99.90
8402;DHT22;4238;48.404;9.498;2023-04-01T03:59:24;5.30;99.90
8402;DHT22;4238;48.404;9.498;2023-04-01T04:01:51;5.30;99.90
8402;DHT22;4238;48.404;9.498;2023-04-01T04:04:18;5.20;99.90
8402;DHT22;4238;48.404;9.498;2023-04-01T04:06:46;5.20;99.90
8402;DHT22;4238;48.404;9.498;2023-04-01T04:09:13;5.20;99.90
8402;DHT22;4238;48.404;9.498;2023-04-01T04:11:40;5.20;99.90
8402;DHT22;4238;48.404;9.498;2023-04-01T04:14:07;5.10;99.90
8402;DHT22;4238;48.404;9.498;2023-04-01T04:16:35;5.10;99.90
8402;DHT22;4238;48.404;9.498;2023-04-01T04:19:03;5.20;99.90
8402;DHT22;4238;48.404;9.498;2023-04-01T04:21:30;5.10;99.90
8402;DHT22;4238;48.404;9.498;2023-04-01T04:23:59;5.20;99.90
8402;DHT22;4238;48.404;9.498;2023-04-01T04:26:26;5.20;99.90
8402;DHT22;4238;48.404;9.498;2023-04-01T04:28:54;5.30;99.90
8402;DHT22;4238;48.404;9.498;2023-04-01T04:31:22;5.30;99.90
8402;DHT22;4238;48.404;9.498;2023-04-01T04:33:49;5.20;99.90
8402;DHT22;4238;48.404;9.498;2023-04-01T04:36:17;5.30;99.90
8402;DHT22;4238;48.404;9.498;2023-04-01T04:38:44;5.40;99.90
8402;DHT22;4238;48.404;9.498;2023-04-01T04:41:12;5.30;99.90
8402;DHT22;4238;48.404;9.498;2023-04-01T04:43:40;5.30;99.90
8402;DHT22;4238;48.404;9.498;2023-04-01T04:46:08;5.30;99.90
8402;DHT22;4238;48.404;9.498;2023-04-01T04:48:35;5.20;99.90
8402;DHT22;4238;48.404;9.498;2023-04-01T04:51:02;5.20;99.90
8402;DHT22;4238;48.404;9.498;2023-04-01T04:53:29;5.20;99.90
8402;DHT22;4238;48.404;9.498;2023-04-01T04:55:56;5.30;99.90
8402;DHT22;4238;48.404;9.498;2023-04-01T04:58:24;5.30;99.90
8402;DHT22;4238;48.404;9.498;2023-04-01T05:00:51;5.40;99.90
8402;DHT22;4238;48.404;9.498;2023-04-01T05:03:18;5.40;99.90
8402;DHT22;4238;48.404;9.498;2023-04-01T05:05:49;5.40;99.90
8402;DHT22;4238;48.404;9.498;2023-04-01T05:08:17;5.40;99.90
8402;DHT22;4238;48.404;9.498;2023-04-01T05:10:44;5.50;99.90
8402;DHT22;4238;48.404;9.498;2023-04-01T05:13:11;5.60;99.90
8402;DHT22;4238;48.404;9.498;2023-04-01T05:15:39;5.50;99.90
8402;DHT22;4238;48.404;9.498;2023-04-01T05:18:06;5.40;99.90
8402;DHT22;4238;48.404;9.498;2023-04-01T05:20:33;5.40;99.90
8402;DHT22;4238;48.404;9.498;2023-04-01T05:23:00;5.50;99.90
8402;DHT22;4238;48.404;9.498;2023-04-01T05:25:27;5.40;99.90
8402;DHT22;4238;48.404;9.498;2023-04-01T05:27:54;5.60;99.90
8402;DHT22;4238;48.404;9.498;2023-04-01T05:30:21;5.60;99.90
8402;DHT22;4238;48.404;9.498;2023-04-01T05:32:49;5.60;99.90
8402;DHT22;4238;48.404;9.498;2023-04-01T05:35:16;5.70;99.90
8402;DHT22;4238;48.404;9.498;2023-04-01T05:37:43;5.70;99.90
8402;DHT22;4238;48.404;9.498;2023-04-01T05:40:11;5.70;99.90
8402;DHT22;4238;48.404;9.498;2023-04-01T05:42:38;5.80;99.90
8402;DHT22;4238;48.404;9.498;2023-04-01T05:45:06;5.80;99.90
8402;DHT22;4238;48.404;9.498;2023-04-01T05:47:33;5.70;99.90
8402;DHT22;4238;48.404;9.498;2023-04-01T05:50:01;5.70;99.90
8402;DHT22;4238;48.404;9.498;2023-04-01T05:52:28;5.80;99.90
8402;DHT22;4238;48.404;9.498;2023-04-01T05:54:55;5.80;99.90
8402;DHT22;4238;48.404;9.498;2023-04-01T05:57:21;5.90;99.90
8402;DHT22;4238;48.404;9.498;2023-04-01T05:59:48;5.90;99.90
8402;DHT22;4238;48.404;9.498;2023-04-01T06:02:17;6.00;99.90
8402;DHT22;4238;48.404;9.498;2023-04-01T06:04:45;6.00;99.90
8402;DHT22;4238;48.404;9.498;2023-04-01T06:07:14;6.00;99.90
8402;DHT22;4238;48.404;9.498;2023-04-01T06:09:42;6.00;99.90
8402;DHT22;4238;48.404;9.498;2023-04-01T06:12:28;6.00;99.90
8402;DHT22;4238;48.404;9.498;2023-04-01T06:15:06;6.00;99.90
8402;DHT22;4238;48.404;9.498;2023-04-01T06:17:45;6.10;99.90
8402;DHT22;4238;48.404;9.498;2023-04-01T06:20:22;6.30;99.90
8402;DHT22;4238;48.404;9.498;2023-04-01T06:23:09;6.20;99.90
8402;DHT22;4238;48.404;9.498;2023-04-01T06:25:54;6.30;99.90
8402;DHT22;4238;48.404;9.498;2023-04-01T06:28:58;6.40;99.90
8402;DHT22;4238;48.404;9.498;2023-04-01T06:31:42;6.60;99.90
8402;DHT22;4238;48.404;9.498;2023-04-01T06:34:39;6.60;98.40
8402;DHT22;4238;48.404;9.498;2023-04-01T06:37:26;6.60;95.80
8402;DHT22;4238;48.404;9.498;2023-04-01T06:40:36;6.80;97.00
8402;DHT22;4238;48.404;9.498;2023-04-01T06:43:16;6.70;99.90
8402;DHT22;4238;48.404;9.498;2023-04-01T06:45:50;6.70;90.40
8402;DHT22;4238;48.404;9.498;2023-04-01T06:51:17;7.00;95.20
8402;DHT22;4238;48.404;9.498;2023-04-01T06:53:51;7.10;91.40
8402;DHT22;4238;48.404;9.498;2023-04-01T06:56:24;7.20;89.70
8402;DHT22;4238;48.404;9.498;2023-04-01T06:58:55;6.90;79.10
8402;DHT22;4238;48.404;9.498;2023-04-01T07:01:26;6.90;85.50
8402;DHT22;4238;48.404;9.498;2023-04-01T07:03:56;6.80;85.70
8402;DHT22;4238;48.404;9.498;2023-04-01T07:06:28;6.90;91.70
8402;DHT22;4238;48.404;9.498;2023-04-01T07:09:00;6.80;78.90
8402;DHT22;4238;48.404;9.498;2023-04-01T07:11:32;6.80;88.20
8402;DHT22;4238;48.404;9.498;2023-04-01T07:14:04;6.80;89.20
8402;DHT22;4238;48.404;9.498;2023-04-01T07:16:36;6.90;89.40
8402;DHT22;4238;48.404;9.498;2023-04-01T07:19:10;6.80;80.80
8402;DHT22;4238;48.404;9.498;2023-04-01T07:21:41;6.90;95.30
8402;DHT22;4238;48.404;9.498;2023-04-01T07:24:16;6.90;83.80
8402;DHT22;4238;48.404;9.498;2023-04-01T07:26:45;6.90;86.20
8402;DHT22;4238;48.404;9.498;2023-04-01T07:29:14;7.10;84.10
8402;DHT22;4238;48.404;9.498;2023-04-01T07:32:12;7.00;81.30
8402;DHT22;4238;48.404;9.498;2023-04-01T07:34:50;7.00;88.10
8402;DHT22;4238;48.404;9.498;2023-04-01T07:37:22;7.00;75.80
8402;DHT22;4238;48.404;9.498;2023-04-01T07:39:55;7.00;89.30
8402;DHT22;4238;48.404;9.498;2023-04-01T07:42:31;7.10;83.10
8402;DHT22;4238;48.404;9.498;2023-04-01T07:45:06;7.20;89.20
8402;DHT22;4238;48.404;9.498;2023-04-01T07:47:45;7.20;90.30
8402;DHT22;4238;48.404;9.498;2023-04-01T07:50:21;7.30;74.90
8402;DHT22;4238;48.404;9.498;2023-04-01T07:52:59;7.10;70.70
8402;DHT22;4238;48.404;9.498;2023-04-01T07:55:33;7.10;88.60
8402;DHT22;4238;48.404;9.498;2023-04-01T07:58:09;7.10;85.90
8402;DHT22;4238;48.404;9.498;2023-04-01T08:00:41;7.10;87.30
8402;DHT22;4238;48.404;9.498;2023-04-01T08:03:18;7.20;83.90
8402;DHT22;4238;48.404;9.498;2023-04-01T08:05:54;7.30;91.20
8402;DHT22;4238;48.404;9.498;2023-04-01T08:08:31;7.20;85.00
8402;DHT22;4238;48.404;9.498;2023-04-01T08:11:07;7.10;94.20
8402;DHT22;4238;48.404;9.498;2023-04-01T08:13:44;7.30;83.10
8402;DHT22;4238;48.404;9.498;2023-04-01T08:16:17;7.40;81.10
8402;DHT22;4238;48.404;9.498;2023-04-01T08:18:54;7.40;64.20
8402;DHT22;4238;48.404;9.498;2023-04-01T08:21:28;7.40;67.80
8402;DHT22;4238;48.404;9.498;2023-04-01T08:24:06;7.30;72.90
8402;DHT22;4238;48.404;9.498;2023-04-01T08:26:37;7.40;74.50
8402;DHT22;4238;48.404;9.498;2023-04-01T08:29:13;7.50;75.00
8402;DHT22;4238;48.404;9.498;2023-04-01T08:31:45;7.40;71.10
8402;DHT22;4238;48.404;9.498;2023-04-01T08:34:16;7.40;78.30
8402;DHT22;4238;48.404;9.498;2023-04-01T08:36:46;7.30;86.00
8402;DHT22;4238;48.404;9.498;2023-04-01T08:39:22;7.30;80.80
8402;DHT22;4238;48.404;9.498;2023-04-01T08:45:21;7.30;71.50
8402;DHT22;4238;48.404;9.498;2023-04-01T08:48:08;7.30;86.70
8402;DHT22;4238;48.404;9.498;2023-04-01T08:51:16;7.30;84.40
8402;DHT22;4238;48.404;9.498;2023-04-01T08:54:00;7.30;85.10
8402;DHT22;4238;48.404;9.498;2023-04-01T08:56:34;7.20;73.40
8402;DHT22;4238;48.404;9.498;2023-04-01T09:02:23;7.20;88.60
8402;DHT22;4238;48.404;9.498;2023-04-01T09:05:19;7.20;91.40
8402;DHT22;4238;48.404;9.498;2023-04-01T09:08:00;7.30;91.50
8402;DHT22;4238;48.404;9.498;2023-04-01T09:10:39;7.20;83.80
8402;DHT22;4238;48.404;9.498;2023-04-01T09:16:27;7.20;83.00
8402;DHT22;4238;48.404;9.498;2023-04-01T09:19:22;7.10;67.90
8402;DHT22;4238;48.404;9.498;2023-04-01T09:25:21;7.20;77.20
8402;DHT22;4238;48.404;9.498;2023-04-01T09:27:56;7.10;85.40
8402;DHT22;4238;48.404;9.498;2023-04-01T09:30:34;7.10;77.90
8402;DHT22;4238;48.404;9.498;2023-04-01T09:36:17;7.00;75.60
8402;DHT22;4238;48.404;9.498;2023-04-01T09:38:55;7.10;86.50
8402;DHT22;4238;48.404;9.498;2023-04-01T09:41:29;7.10;91.10
8402;DHT22;4238;48.404;9.498;2023-04-01T09:44:07;7.10;86.10
8402;DHT22;4238;48.404;9.498;2023-04-01T09:46:54;7.20;95.00
8402;DHT22;4238;48.404;9.498;2023-04-01T09:49:46;7.20;89.40
8402;DHT22;4238;48.404;9.498;2023-04-01T09:52:29;7.20;92.80
8402;DHT22;4238;48.404;9.498;2023-04-01T09:55:14;7.20;94.50
8402;DHT22;4238;48.404;9.498;2023-04-01T10:01:20;7.30;94.60
8402;DHT22;4238;48.404;9.498;2023-04-01T10:16:24;7.50;92.30
8402;DHT22;4238;48.404;9.498;2023-04-01T10:22:31;7.50;94.00
8402;DHT22;4238;48.404;9.498;2023-04-01T10:25:18;7.50;93.80
8402;DHT22;4238;48.404;9.498;2023-04-01T10:31:23;7.70;99.90
8402;DHT22;4238;48.404;9.498;2023-04-01T10:37:37;7.90;97.10
8402;DHT22;4238;48.404;9.498;2023-04-01T10:44:03;7.90;73.30
8402;DHT22;4238;48.404;9.498;2023-04-01T10:50:25;7.80;78.10
8402;DHT22;4238;48.404;9.498;2023-04-01T10:53:31;7.30;91.80
8402;DHT22;4238;48.404;9.498;2023-04-01T11:00:01;7.30;98.20
8402;DHT22;4238;48.404;9.498;2023-04-01T11:12:32;7.30;99.90
8402;DHT22;4238;48.404;9.498;2023-04-01T11:21:37;7.40;99.90
8402;DHT22;4238;48.404;9.498;2023-04-01T11:24:45;7.30;99.90
8402;DHT22;4238;48.404;9.498;2023-04-01T11:30:36;7.40;99.90
8402;DHT22;4238;48.404;9.498;2023-04-01T11:33:15;7.30;99.90
8402;DHT22;4238;48.404;9.498;2023-04-01T11:35:58;7.40;99.90
8402;DHT22;4238;48.404;9.498;2023-04-01T11:38:39;7.30;99.90
8402;DHT22;4238;48.404;9.498;2023-04-01T11:41:22;7.30;99.90
8402;DHT22;4238;48.404;9.498;2023-04-01T11:44:04;7.50;99.90
8402;DHT22;4238;48.404;9.498;2023-04-01T11:46:46;7.50;99.90
8402;DHT22;4238;48.404;9.498;2023-04-01T11:49:33;7.50;99.90
8402;DHT22;4238;48.404;9.498;2023-04-01T11:52:26;7.60;94.80
8402;DHT22;4238;48.404;9.498;2023-04-01T11:55:19;7.50;99.90
8402;DHT22;4238;48.404;9.498;2023-04-01T12:00:57;7.80;91.90
8402;DHT22;4238;48.404;9.498;2023-04-01T12:03:42;7.90;99.90
8402;DHT22;4238;48.404;9.498;2023-04-01T12:06:15;8.00;94.50
8402;DHT22;4238;48.404;9.498;2023-04-01T12:08:51;8.00;92.30
8402;DHT22;4238;48.404;9.498;2023-04-01T12:11:27;7.90;90.30
8402;DHT22;4238;48.404;9.498;2023-04-01T12:13:59;7.80;93.00
8402;DHT22;4238;48.404;9.498;2023-04-01T12:16:38;7.70;94.30
8402;DHT22;4238;48.404;9.498;2023-04-01T12:19:17;7.60;99.70
8402;DHT22;4238;48.404;9.498;2023-04-01T12:21:56;7.60;99.90
8402;DHT22;4238;48.404;9.498;2023-04-01T12:24:41;7.70;99.30
8402;DHT22;4238;48.404;9.498;2023-04-01T12:27:38;7.80;99.90
8402;DHT22;4238;48.404;9.498;2023-04-01T12:30:21;7.70;93.90
8402;DHT22;4238;48.404;9.498;2023-04-01T12:33:00;7.80;99.90
8402;DHT22;4238;48.404;9.498;2023-04-01T12:35:42;8.00;99.90
8402;DHT22;4238;48.404;9.498;2023-04-01T12:38:22;8.10;99.90
8402;DHT22;4238;48.404;9.498;2023-04-01T12:50:08;7.90;99.90
8402;DHT22;4238;48.404;9.498;2023-04-01T12:52:54;7.90;99.90
8402;DHT22;4238;48.404;9.498;2023-04-01T12:55:36;8.00;99.90
8402;DHT22;4238;48.404;9.498;2023-04-01T13:01:16;8.10;99.90
8402;DHT22;4238;48.404;9.498;2023-04-01T13:07:10;8.10;99.90
8402;DHT22;4238;48.404;9.498;2023-04-01T13:09:46;8.10;99.90
8402;DHT22;4238;48.404;9.498;2023-04-01T13:12:47;8.20;99.90
8402;DHT22;4238;48.404;9.498;2023-04-01T13:15:26;8.10;93.10
8402;DHT22;4238;48.404;9.498;2023-04-01T13:18:01;8.10;99.90
8402;DHT22;4238;48.404;9.498;2023-04-01T13:20:41;8.10;99.90
8402;DHT22;4238;48.404;9.498;2023-04-01T13:23:24;8.20;99.90
8402;DHT22;4238;48.404;9.498;2023-04-01T13:26:06;8.20;94.20
8402;DHT22;4238;48.404;9.498;2023-04-01T13:28:38;8.30;99.90
8402;DHT22;4238;48.404;9.498;2023-04-01T13:31:11;8.40;94.60
8402;DHT22;4238;48.404;9.498;2023-04-01T13:33:45;8.50;92.10
8402;DHT22;4238;48.404;9.498;2023-04-01T13:36:20;8.50;83.10
8402;DHT22;4238;48.404;9.498;2023-04-01T13:39:26;8.60;96.40
8402;DHT22;4238;48.404;9.498;2023-04-01T13:42:12;8.70;99.90
8402;DHT22;4238;48.404;9.498;2023-04-01T13:44:45;8.60;60.00
8402;DHT22;4238;48.404;9.498;2023-04-01T13:47:27;8.50;65.30
8402;DHT22;4238;48.404;9.498;2023-04-01T13:50:19;8.40;63.40
8402;DHT22;4238;48.404;9.498;2023-04-01T13:55:49;8.30;59.20
8402;DHT22;4238;48.404;9.498;2023-04-01T13:58:35;8.20;59.10
8402;DHT22;4238;48.404;9.498;2023-04-01T14:01:13;8.20;56.60
8402;DHT22;4238;48.404;9.498;2023-04-01T14:06:54;8.20;46.40
8402;DHT22;4238;48.404;9.498;2023-04-01T14:09:47;8.20;35.60
8402;DHT22;4238;48.404;9.498;2023-04-01T14:12:26;8.10;58.00
8402;DHT22;4238;48.404;9.498;2023-04-01T14:15:07;8.10;43.80
8402;DHT22;4238;48.404;9.498;2023-04-01T14:18:03;8.10;56.90
8402;DHT22;4238;48.404;9.498;2023-04-01T14:20:40;8.10;48.30
8402;DHT22;4238;48.404;9.498;2023-04-01T14:23:29;8.20;55.30
8402;DHT22;4238;48.404;9.498;2023-04-01T14:26:13;8.30;44.10
8402;DHT22;4238;48.404;9.498;2023-04-01T14:28:46;8.30;40.00
8402;DHT22;4238;48.404;9.498;2023-04-01T14:31:30;8.40;33.10
8402;DHT22;4238;48.404;9.498;2023-04-01T14:34:09;8.40;26.20
8402;DHT22;4238;48.404;9.498;2023-04-01T14:36:53;8.40;31.20
8402;DHT22;4238;48.404;9.498;2023-04-01T14:39:33;8.40;16.10
8402;DHT22;4238;48.404;9.498;2023-04-01T14:42:21;8.40;5.00
8402;DHT22;4238;48.404;9.498;2023-04-01T14:47:51;8.30;6.80
8402;DHT22;4238;48.404;9.498;2023-04-01T14:50:21;8.40;12.20
8402;DHT22;4238;48.404;9.498;2023-04-01T14:52:57;8.40;1.60
8402;DHT22;4238;48.404;9.498;2023-04-01T14:55:31;8.50;3.40
8402;DHT22;4238;48.404;9.498;2023-04-01T14:58:07;8.50;10.40
8402;DHT22;4238;48.404;9.498;2023-04-01T15:00:50;8.50;1.00
8402;DHT22;4238;48.404;9.498;2023-04-01T15:03:25;8.50;1.00
8402;DHT22;4238;48.404;9.498;2023-04-01T15:06:10;8.50;1.00
8402;DHT22;4238;48.404;9.498;2023-04-01T15:08:44;8.50;1.00
8402;DHT22;4238;48.404;9.498;2023-04-01T15:11:25;8.50;1.00
8402;DHT22;4238;48.404;9.498;2023-04-01T15:14:24;8.50;1.00
8402;DHT22;4238;48.404;9.498;2023-04-01T15:17:02;8.50;1.00
8402;DHT22;4238;48.404;9.498;2023-04-01T15:19:41;8.60;1.00
8402;DHT22;4238;48.404;9.498;2023-04-01T15:22:27;8.50;1.00
8402;DHT22;4238;48.404;9.498;2023-04-01T15:25:14;8.50;1.00
8402;DHT22;4238;48.404;9.498;2023-04-01T15:27:47;8.50;1.00
8402;DHT22;4238;48.404;9.498;2023-04-01T15:30:27;8.50;1.00
8402;DHT22;4238;48.404;9.498;2023-04-01T15:33:07;8.50;1.00
8402;DHT22;4238;48.404;9.498;2023-04-01T15:35:42;8.40;1.00
8402;DHT22;4238;48.404;9.498;2023-04-01T15:38:19;8.40;3.50
8402;DHT22;4238;48.404;9.498;2023-04-01T15:40:50;8.40;1.00
8402;DHT22;4238;48.404;9.498;2023-04-01T15:43:30;8.40;1.00
8402;DHT22;4238;48.404;9.498;2023-04-01T15:46:14;8.40;1.00
8402;DHT22;4238;48.404;9.498;2023-04-01T15:48:55;8.40;1.00
8402;DHT22;4238;48.404;9.498;2023-04-01T15:54:38;8.30;1.00
8402;DHT22;4238;48.404;9.498;2023-04-01T15:57:21;8.30;4.50
8402;DHT22;4238;48.404;9.498;2023-04-01T16:00:02;8.30;12.30
8402;DHT22;4238;48.404;9.498;2023-04-01T16:02:39;8.30;1.00
8402;DHT22;4238;48.404;9.498;2023-04-01T16:05:24;8.30;1.00
8402;DHT22;4238;48.404;9.498;2023-04-01T16:10:56;8.20;8.80
8402;DHT22;4238;48.404;9.498;2023-04-01T16:13:34;8.20;9.80
8402;DHT22;4238;48.404;9.498;2023-04-01T16:16:12;8.30;16.80
8402;DHT22;4238;48.404;9.498;2023-04-01T16:21:38;8.20;22.40
8402;DHT22;4238;48.404;9.498;2023-04-01T16:24:22;8.20;11.00
8402;DHT22;4238;48.404;9.498;2023-04-01T16:26:54;8.30;9.30
8402;DHT22;4238;48.404;9.498;2023-04-01T16:29:32;8.30;9.00
8402;DHT22;4238;48.404;9.498;2023-04-01T16:32:17;8.30;5.60
8402;DHT22;4238;48.404;9.498;2023-04-01T16:34:57;8.30;1.00
8402;DHT22;4238;48.404;9.498;2023-04-01T16:37:33;8.30;5.20
8402;DHT22;4238;48.404;9.498;2023-04-01T16:40:14;8.30;17.10
8402;DHT22;4238;48.404;9.498;2023-04-01T16:42:47;8.30;3.10
8402;DHT22;4238;48.404;9.498;2023-04-01T16:45:23;8.20;1.00
8402;DHT22;4238;48.404;9.498;2023-04-01T16:47:54;8.20;1.00
8402;DHT22;4238;48.404;9.498;2023-04-01T16:50:24;8.20;1.00
8402;DHT22;4238;48.404;9.498;2023-04-01T16:53:02;8.20;1.00
8402;DHT22;4238;48.404;9.498;2023-04-01T16:55:48;8.20;1.00
8402;DHT22;4238;48.404;9.498;2023-04-01T16:58:21;8.20;1.00
8402;DHT22;4238;48.404;9.498;2023-04-01T17:00:50;8.20;1.00
8402;DHT22;4238;48.404;9.498;2023-04-01T17:03:25;8.20;1.00
8402;DHT22;4238;48.404;9.498;2023-04-01T17:06:02;8.20;1.00
8402;DHT22;4238;48.404;9.498;2023-04-01T17:08:49;8.20;1.00
8402;DHT22;4238;48.404;9.498;2023-04-01T17:11:20;8.20;1.00
8402;DHT22;4238;48.404;9.498;2023-04-01T17:13:54;8.20;1.00
8402;DHT22;4238;48.404;9.498;2023-04-01T17:17:00;8.20;1.00
8402;DHT22;4238;48.404;9.498;2023-04-01T17:19:46;8.20;1.00
8402;DHT22;4238;48.404;9.498;2023-04-01T17:22:25;8.10;1.00
8402;DHT22;4238;48.404;9.498;2023-04-01T17:25:08;8.10;1.00
8402;DHT22;4238;48.404;9.498;2023-04-01T17:27:49;8.10;1.00
8402;DHT22;4238;48.404;9.498;2023-04-01T17:30:30;8.10;1.00
8402;DHT22;4238;48.404;9.498;2023-04-01T17:33:27;8.10;1.00
8402;DHT22;4238;48.404;9.498;2023-04-01T17:36:00;8.10;1.00
8402;DHT22;4238;48.404;9.498;2023-04-01T17:38:46;8.10;1.00
8402;DHT22;4238;48.404;9.498;2023-04-01T17:41:21;8.10;1.00
8402;DHT22;4238;48.404;9.498;2023-04-01T17:43:58;8.10;1.00
8402;DHT22;4238;48.404;9.498;2023-04-01T17:46:32;8.10;1.00
8402;DHT22;4238;48.404;9.498;2023-04-01T17:49:08;8.10;1.00
8402;DHT22;4238;48.404;9.498;2023-04-01T17:51:46;8.10;1.00
8402;DHT22;4238;48.404;9.498;2023-04-01T17:54:23;8.10;1.00
8402;DHT22;4238;48.404;9.498;2023-04-01T17:57:07;8.00;1.00
8402;DHT22;4238;48.404;9.498;2023-04-01T17:59:51;8.00;1.00
8402;DHT22;4238;48.404;9.498;2023-04-01T18:02:24;8.00;1.00
8402;DHT22;4238;48.404;9.498;2023-04-01T18:05:24;8.00;1.00
8402;DHT22;4238;48.404;9.498;2023-04-01T18:08:24;7.90;4.10
8402;DHT22;4238;48.404;9.498;2023-04-01T18:11:04;7.90;13.80
8402;DHT22;4238;48.404;9.498;2023-04-01T18:13:58;7.90;17.70
8402;DHT22;4238;48.404;9.498;2023-04-01T18:16:43;7.90;9.30
8402;DHT22;4238;48.404;9.498;2023-04-01T18:19:18;7.90;17.40
8402;DHT22;4238;48.404;9.498;2023-04-01T18:21:52;7.80;20.00
8402;DHT22;4238;48.404;9.498;2023-04-01T18:24:26;7.80;17.00
8402;DHT22;4238;48.404;9.498;2023-04-01T18:27:03;7.80;22.00
8402;DHT22;4238;48.404;9.498;2023-04-01T18:29:39;7.80;25.80
8402;DHT22;4238;48.404;9.498;2023-04-01T18:32:15;7.80;24.90
8402;DHT22;4238;48.404;9.498;2023-04-01T18:35:00;7.80;21.70
8402;DHT22;4238;48.404;9.498;2023-04-01T18:37:32;7.80;25.80
8402;DHT22;4238;48.404;9.498;2023-04-01T18:40:10;7.70;23.50
8402;DHT22;4238;48.404;9.498;2023-04-01T18:42:44;7.70;27.00
8402;DHT22;4238;48.404;9.498;2023-04-01T18:45:19;7.80;25.60
8402;DHT22;4238;48.404;9.498;2023-04-01T18:47:55;7.70;21.80
8402;DHT22;4238;48.404;9.498;2023-04-01T18:50:27;7.60;27.10
8402;DHT22;4238;48.404;9.498;2023-04-01T18:52:58;7.60;27.60
8402;DHT22;4238;48.404;9.498;2023-04-01T18:55:34;7.60;26.00
8402;DHT22;4238;48.404;9.498;2023-04-01T18:58:35;7.60;20.90
8402;DHT22;4238;48.404;9.498;2023-04-01T19:01:22;7.60;21.40
8402;DHT22;4238;48.404;9.498;2023-04-01T19:04:00;7.50;23.80
8402;DHT22;4238;48.404;9.498;2023-04-01T19:06:31;7.50;21.40
8402;DHT22;4238;48.404;9.498;2023-04-01T19:09:15;7.50;16.30